Time;durP1;ratioP1;P1;durP2;ratioP2;P2;SDS_P1;SDS_P2;PMS_P1;PMS_P2;Temp;Humidity;BMP_temperature;BMP_pressure;BME280_temperature;BME280_humidity;BME280_pressure;Samples;Min_cycle;Max_cycle;Signal;HPM_P1;HPM_P2
2022/03/09 00:00:25;;;;;;;3.25;2.20;;;3.40;85.40;;;;;;4880816;29;20045;-87
2022/03/09 00:02:51;;;;;;;3.45;2.10;;;2.70;85.40;;;;;;4865983;29;20056;-87
2022/03/09 00:05:17;;;;;;;2.22;1.90;;;3.00;85.10;;;;;;4864229;29;20049;-87
2022/03/09 00:07:42;;;;;;;2.45;2.00;;;3.20;85.80;;;;;;4881202;29;20040;-87
2022/03/09 00:10:08;;;;;;;3.45;1.77;;;3.10;86.40;;;;;;4881510;29;20104;-88
2022/03/09 00:12:34;;;;;;;6.95;2.50;;;2.20;86.40;;;;;;4867376;29;20060;-86
2022/03/09 00:15:00;;;;;;;3.60;2.60;;;2.20;86.00;;;;;;4872534;29;20128;-85
2022/03/09 00:17:26;;;;;;;3.83;1.97;;;2.60;86.40;;;;;;4865488;29;20057;-87
2022/03/09 00:19:52;;;;;;;3.30;1.63;;;2.20;86.60;;;;;;4865257;29;20322;-87
2022/03/09 00:22:17;;;;;;;3.15;2.25;;;2.20;86.90;;;;;;4879788;29;20081;-87
2022/03/09 00:24:43;;;;;;;1.80;1.70;;;2.30;87.70;;;;;;4886866;29;20048;-87
2022/03/09 00:27:10;;;;;;;4.00;2.38;;;3.10;88.10;;;;;;4878648;29;20033;-87
2022/03/09 00:29:35;;;;;;;3.75;2.35;;;2.10;87.50;;;;;;4892332;29;20055;-86
2022/03/09 00:32:01;;;;;;;2.70;2.13;;;2.20;88.30;;;;;;4849429;29;20045;-87
2022/03/09 00:34:27;;;;;;;2.78;1.77;;;2.10;89.30;;;;;;4847466;29;20048;-87
2022/03/09 00:36:52;;;;;;;3.40;1.80;;;3.30;89.30;;;;;;4881393;29;20037;-87
2022/03/09 00:39:18;;;;;;;3.05;1.90;;;2.90;89.50;;;;;;4866872;29;20045;-87
2022/03/09 00:41:44;;;;;;;2.30;1.90;;;2.10;89.30;;;;;;4881000;29;20037;-87
2022/03/09 00:44:09;;;;;;;2.47;2.03;;;2.10;89.20;;;;;;4868833;29;20056;-88
2022/03/09 00:46:35;;;;;;;3.08;2.55;;;2.90;89.80;;;;;;4880248;29;20100;-87
2022/03/09 00:49:02;;;;;;;3.55;2.72;;;2.00;89.50;;;;;;4859779;29;20081;-87
2022/03/09 00:51:28;;;;;;;2.97;2.00;;;2.10;89.60;;;;;;4854079;29;20081;-87
2022/03/09 00:53:53;;;;;;;2.25;2.05;;;2.60;90.20;;;;;;4884555;29;20099;-87
2022/03/09 00:56:19;;;;;;;3.33;2.47;;;2.00;90.20;;;;;;4866792;29;20045;-87
2022/03/09 00:58:46;;;;;;;2.78;2.20;;;2.90;90.50;;;;;;4872408;29;20055;-87
2022/03/09 01:01:12;;;;;;;6.13;2.97;;;2.60;90.70;;;;;;4860212;29;20041;-87
2022/03/09 01:03:37;;;;;;;2.23;2.10;;;1.90;90.50;;;;;;4884201;29;20060;-87
2022/03/09 01:06:04;;;;;;;3.72;2.28;;;2.80;90.80;;;;;;4878261;29;20048;-87
2022/03/09 01:08:30;;;;;;;4.55;2.92;;;2.90;90.90;;;;;;4881978;29;20037;-87
2022/03/09 01:10:55;;;;;;;11.48;2.63;;;1.80;91.10;;;;;;4864427;29;20073;-87
2022/03/09 01:13:21;;;;;;;2.80;2.50;;;3.00;91.80;;;;;;4863566;29;20049;-87
2022/03/09 01:15:50;;;;;;;7.50;2.70;;;1.70;91.90;;;;;;4863720;29;20049;-87
2022/03/09 01:18:16;;;;;;;6.28;2.88;;;1.80;92.10;;;;;;4864314;29;20053;-86
2022/03/09 01:20:41;;;;;;;4.95;2.95;;;1.70;92.20;;;;;;4880866;29;20064;-85
2022/03/09 01:23:07;;;;;;;2.58;1.73;;;1.70;92.20;;;;;;4880209;29;20057;-87
2022/03/09 01:25:33;;;;;;;5.10;2.17;;;1.70;92.60;;;;;;4853754;29;20053;-85
2022/03/09 01:27:58;;;;;;;5.43;3.08;;;2.50;92.60;;;;;;4872760;29;20070;-86
2022/03/09 01:30:24;;;;;;;2.45;2.25;;;2.50;92.80;;;;;;4860821;29;20484;-87
2022/03/09 01:32:51;;;;;;;5.00;2.92;;;1.70;92.80;;;;;;4862742;29;20049;-87
2022/03/09 01:35:17;;;;;;;2.97;2.15;;;2.40;93.30;;;;;;4862453;29;20055;-87
2022/03/09 01:37:45;;;;;;;4.53;2.13;;;1.50;93.00;;;;;;4885268;29;20445;-83
2022/03/09 01:40:11;;;;;;;3.35;2.65;;;1.70;93.30;;;;;;4862416;29;20056;-87
2022/03/09 01:42:37;;;;;;;3.25;2.28;;;1.60;93.60;;;;;;4869069;29;20097;-87
2022/03/09 01:45:06;;;;;;;3.13;2.60;;;1.60;93.80;;;;;;4880026;29;20385;-87
2022/03/09 01:47:32;;;;;;;4.13;2.35;;;1.50;94.30;;;;;;4871905;29;20045;-87
2022/03/09 01:49:57;;;;;;;5.10;2.75;;;2.10;94.40;;;;;;4878357;29;20057;-87
2022/03/09 01:52:24;;;;;;;3.42;3.08;;;1.50;94.60;;;;;;4864481;29;20045;-87
2022/03/09 01:54:52;;;;;;;4.15;2.47;;;2.30;94.80;;;;;;4862127;29;20072;-86
2022/03/09 01:57:18;;;;;;;3.22;2.38;;;1.50;94.80;;;;;;4862621;29;20131;-87
2022/03/09 01:59:44;;;;;;;5.78;2.42;;;2.60;95.40;;;;;;4888373;29;20064;-87
2022/03/09 02:02:09;;;;;;;4.82;2.55;;;1.50;95.00;;;;;;4878253;29;20045;-87
2022/03/09 02:04:36;;;;;;;5.00;2.47;;;1.40;95.30;;;;;;4879870;29;20049;-87
2022/03/09 02:07:01;;;;;;;4.72;2.60;;;1.40;95.60;;;;;;4874469;29;20067;-87
2022/03/09 02:09:43;;;;;;;3.22;2.55;;;1.30;95.90;;;;;;4864351;29;20136;-87
2022/03/09 02:12:14;;;;;;;3.58;2.25;;;1.70;96.10;;;;;;4846068;29;20442;-87
2022/03/09 02:14:50;;;;;;;7.25;2.60;;;1.50;96.80;;;;;;4872381;29;20515;-86
2022/03/09 02:17:19;;;;;;;6.82;3.58;;;1.20;97.00;;;;;;4878390;29;20056;-87
2022/03/09 02:19:48;;;;;;;8.65;2.60;;;1.20;97.00;;;;;;4865030;29;20113;-86
2022/03/09 02:22:27;;;;;;;3.35;2.40;;;1.20;97.00;;;;;;4854822;29;20157;-87
2022/03/09 02:24:53;;;;;;;3.65;1.83;;;1.10;97.40;;;;;;4860115;29;20061;-87
2022/03/09 02:27:22;;;;;;;4.95;3.47;;;2.30;97.60;;;;;;4862073;29;20049;-87
2022/03/09 02:29:51;;;;;;;6.40;2.63;;;1.10;97.70;;;;;;4863461;29;20049;-87
2022/03/09 02:32:17;;;;;;;4.90;3.13;;;1.00;98.20;;;;;;4878203;29;20453;-87
2022/03/09 02:34:43;;;;;;;3.28;2.97;;;1.00;99.70;;;;;;4862573;29;20054;-87
2022/03/09 02:37:09;;;;;;;5.45;3.35;;;2.10;99.00;;;;;;4863589;29;20085;-86
2022/03/09 02:39:35;;;;;;;4.10;3.08;;;0.90;99.00;;;;;;4847558;29;20082;-87
2022/03/09 02:42:02;;;;;;;3.50;2.78;;;1.30;99.10;;;;;;4869791;29;20049;-86
2022/03/09 02:44:27;;;;;;;15.15;3.33;;;0.90;99.10;;;;;;4863657;29;20556;-87
2022/03/09 02:46:53;;;;;;;4.22;2.65;;;2.10;99.70;;;;;;4869465;29;20133;-86
2022/03/09 02:49:19;;;;;;;3.00;2.30;;;1.10;99.90;;;;;;4879184;29;20052;-87
2022/03/09 02:51:45;;;;;;;4.93;2.92;;;0.70;99.90;;;;;;4862007;29;20132;-87
2022/03/09 02:54:10;;;;;;;5.35;3.03;;;0.70;99.90;;;;;;4862283;29;20515;-87
2022/03/09 02:56:36;;;;;;;4.80;3.17;;;1.30;99.90;;;;;;4850637;29;20041;-87
2022/03/09 02:59:02;;;;;;;4.15;2.90;;;1.30;99.90;;;;;;4878309;29;20108;-87
2022/03/09 03:01:28;;;;;;;7.80;2.97;;;2.00;99.90;;;;;;4863796;29;20091;-87
2022/03/09 03:03:54;;;;;;;4.75;3.05;;;1.40;99.90;;;;;;4863636;29;20048;-83
2022/03/09 03:06:20;;;;;;;3.00;2.17;;;1.30;99.90;;;;;;4868888;29;20045;-87
2022/03/09 03:08:46;;;;;;;5.95;3.20;;;1.50;99.90;;;;;;4878132;29;20076;-87
2022/03/09 03:11:12;;;;;;;3.08;2.80;;;1.20;99.90;;;;;;4888489;29;20244;-87
2022/03/09 03:13:39;;;;;;;4.70;2.13;;;1.80;99.90;;;;;;4866409;29;20057;-87
2022/03/09 03:16:06;;;;;;;2.75;2.10;;;0.50;99.90;;;;;;4865240;29;20485;-87
2022/03/09 03:18:32;;;;;;;;;;;1.00;99.90;;;;;;4866020;29;20059;-86
2022/03/09 03:20:58;;;;;;;4.00;1.95;;;0.40;99.90;;;;;;4878007;29;19923;-86
2022/03/09 03:23:25;;;;;;;3.08;2.30;;;0.30;99.90;;;;;;4851185;29;20057;-87
2022/03/09 03:25:52;;;;;;;2.63;2.22;;;0.30;99.90;;;;;;4863991;29;20446;-86
2022/03/09 03:28:19;;;;;;;4.95;2.40;;;0.90;99.90;;;;;;4864119;29;20053;-87
2022/03/09 03:30:45;;;;;;;2.28;1.83;;;0.20;99.90;;;;;;4854192;29;20064;-87
2022/03/09 03:33:12;;;;;;;3.20;2.65;;;0.10;99.90;;;;;;4866605;29;20045;-86
2022/03/09 03:35:38;;;;;;;6.70;3.95;;;1.30;99.90;;;;;;4862703;29;20053;-87
2022/03/09 03:38:04;;;;;;;3.88;2.88;;;0.10;99.90;;;;;;4879944;29;20068;-86
2022/03/09 03:40:30;;;;;;;8.25;4.00;;;0.10;99.90;;;;;;4881521;29;20195;-86
2022/03/09 03:42:56;;;;;;;6.17;2.63;;;0.00;99.90;;;;;;4870227;29;20154;-86
2022/03/09 03:45:21;;;;;;;3.47;2.83;;;0.10;99.90;;;;;;4866554;29;20086;-87
2022/03/09 03:47:51;;;;;;;6.78;2.63;;;0.00;99.90;;;;;;4893685;29;20119;-87
2022/03/09 03:50:17;;;;;;;5.15;2.97;;;0.70;99.90;;;;;;4856295;29;20052;-87
2022/03/09 03:52:43;;;;;;;6.03;2.40;;;1.20;99.90;;;;;;4874605;29;20049;-87
2022/03/09 03:55:09;;;;;;;6.20;2.60;;;0.70;99.90;;;;;;4868880;29;20052;-87
2022/03/09 03:57:35;;;;;;;2.95;2.45;;;0.00;99.90;;;;;;4895314;29;20404;-86
2022/03/09 04:00:01;;;;;;;2.15;1.77;;;1.10;99.90;;;;;;4864780;29;20052;-87
2022/03/09 04:02:27;;;;;;;4.35;2.25;;;0.20;99.90;;;;;;4866451;29;20049;-87
2022/03/09 04:04:53;;;;;;;3.28;2.38;;;0.00;99.90;;;;;;4864940;29;20136;-87
2022/03/09 04:07:19;;;;;;;3.10;2.65;;;0.00;99.90;;;;;;4881322;29;20037;-87
2022/03/09 04:09:45;;;;;;;8.18;2.63;;;0.10;99.90;;;;;;4880601;29;20041;-87
2022/03/09 04:12:11;;;;;;;6.00;3.95;;;0.40;99.90;;;;;;4867537;29;20045;-86
2022/03/09 04:14:36;;;;;;;3.65;2.92;;;0.00;99.90;;;;;;4863896;29;20048;-86
2022/03/09 04:17:02;;;;;;;3.38;2.13;;;0.10;99.90;;;;;;4866055;29;20108;-86
2022/03/09 04:19:28;;;;;;;2.50;2.30;;;0.60;99.90;;;;;;4881819;29;20049;-85
2022/03/09 04:21:54;;;;;;;6.10;3.45;;;1.00;99.90;;;;;;4864097;29;20072;-84
2022/03/09 04:24:20;;;;;;;3.10;2.00;;;0.10;99.90;;;;;;4878352;29;20056;-86
2022/03/09 04:26:45;;;;;;;4.47;3.20;;;0.20;99.90;;;;;;4879697;29;20049;-85
2022/03/09 04:29:11;;;;;;;3.83;2.42;;;-0.20;99.90;;;;;;4880954;29;20048;-85
2022/03/09 04:31:37;;;;;;;3.38;2.00;;;0.10;99.90;;;;;;4896092;29;20166;-86
2022/03/09 04:34:03;;;;;;;3.23;3.00;;;0.10;99.90;;;;;;4881366;29;20052;-86
2022/03/09 04:36:29;;;;;;;4.55;2.95;;;1.10;99.90;;;;;;4864240;29;20053;-86
2022/03/09 04:38:54;;;;;;;5.60;2.45;;;1.10;99.90;;;;;;4886354;29;20037;-86
2022/03/09 04:41:21;;;;;;;2.35;2.25;;;0.90;99.90;;;;;;4847886;29;20105;-86
2022/03/09 04:43:46;;;;;;;9.75;3.97;;;0.10;99.90;;;;;;4884967;29;20049;-86
2022/03/09 04:46:12;;;;;;;3.70;2.78;;;0.10;99.90;;;;;;4861872;29;20057;-85
2022/03/09 04:48:38;;;;;;;3.22;2.72;;;1.10;99.90;;;;;;4881144;29;20056;-86
2022/03/09 04:51:04;;;;;;;6.95;3.33;;;0.00;99.90;;;;;;4895106;29;20060;-86
2022/03/09 04:53:30;;;;;;;2.60;2.33;;;0.90;99.90;;;;;;4865439;29;20508;-85
2022/03/09 04:55:56;;;;;;;5.23;2.80;;;0.80;99.90;;;;;;4879578;29;20045;-86
2022/03/09 04:58:25;;;;;;;2.47;2.25;;;0.40;99.90;;;;;;4855717;29;20386;-85
2022/03/09 05:00:52;;;;;;;5.95;2.72;;;-0.20;99.90;;;;;;4884805;29;20072;-86
2022/03/09 05:03:18;;;;;;;4.57;3.25;;;-0.20;99.90;;;;;;4867205;29;20125;-85
2022/03/09 05:05:44;;;;;;;5.45;2.78;;;-0.30;99.90;;;;;;4879594;29;20056;-86
2022/03/09 05:08:10;;;;;;;2.88;2.63;;;-0.30;99.90;;;;;;4863896;29;20045;-84
2022/03/09 05:10:37;;;;;;;3.58;3.25;;;-0.30;99.90;;;;;;4879725;29;20080;-86
2022/03/09 05:13:03;;;;;;;5.65;2.38;;;-0.30;99.90;;;;;;4870507;29;20401;-86
2022/03/09 05:15:28;;;;;;;3.23;2.57;;;-0.30;99.90;;;;;;4848384;29;20445;-86
2022/03/09 05:17:54;;;;;;;4.55;2.78;;;-0.30;99.90;;;;;;4876216;29;20109;-86
2022/03/09 05:20:20;;;;;;;4.30;2.10;;;-0.30;99.90;;;;;;4877974;29;20088;-86
2022/03/09 05:22:47;;;;;;;3.72;2.00;;;0.50;99.90;;;;;;4867829;29;20049;-85
2022/03/09 05:25:13;;;;;;;9.55;2.83;;;-0.30;99.90;;;;;;4868173;29;20535;-84
2022/03/09 05:27:40;;;;;;;4.07;2.65;;;-0.40;99.90;;;;;;4856234;29;20496;-86
2022/03/09 05:30:07;;;;;;;4.43;2.28;;;-0.40;99.90;;;;;;4861337;29;20148;-86
2022/03/09 05:32:32;;;;;;;;;;;-0.40;99.90;;;;;;4859650;29;20433;-84
2022/03/09 05:34:58;;;;;;;2.47;2.10;;;-0.40;99.90;;;;;;4847780;29;19931;-86
2022/03/09 05:37:24;;;;;;;2.53;2.10;;;0.00;99.90;;;;;;4880506;29;20056;-86
2022/03/09 05:39:50;;;;;;;2.70;2.10;;;0.40;99.90;;;;;;4880008;29;20059;-85
2022/03/09 05:42:16;;;;;;;1.92;1.83;;;0.40;99.90;;;;;;4878857;29;20117;-85
2022/03/09 05:44:41;;;;;;;5.53;2.45;;;-0.50;99.90;;;;;;4882441;29;20481;-85
2022/03/09 05:47:07;;;;;;;4.50;2.00;;;0.80;99.90;;;;;;4864150;29;20049;-86
2022/03/09 05:49:33;;;;;;;4.83;2.67;;;-0.50;99.90;;;;;;4882280;29;20064;-85
2022/03/09 05:51:59;;;;;;;2.20;2.05;;;-0.10;99.90;;;;;;4894360;29;20049;-86
2022/03/09 05:54:24;;;;;;;3.80;3.05;;;0.40;99.90;;;;;;4850610;29;20378;-85
2022/03/09 05:56:50;;;;;;;4.93;3.10;;;-0.50;99.90;;;;;;4876062;29;20585;-86
2022/03/09 05:59:17;;;;;;;1.73;1.63;;;-0.50;99.90;;;;;;4877936;29;20075;-82
2022/03/09 06:01:43;;;;;;;2.28;1.88;;;-0.50;99.90;;;;;;4880228;29;20053;-85
2022/03/09 06:04:09;;;;;;;5.97;2.07;;;-0.50;99.90;;;;;;4856539;29;20048;-84
2022/03/09 06:06:35;;;;;;;7.68;2.08;;;-0.50;99.90;;;;;;4861616;29;20049;-86
2022/03/09 06:09:00;;;;;;;8.05;3.80;;;-0.20;99.90;;;;;;4895543;29;20121;-88
2022/03/09 06:11:27;;;;;;;2.78;1.98;;;0.50;99.90;;;;;;4878352;29;20052;-87
2022/03/09 06:13:52;;;;;;;7.53;3.70;;;-0.30;99.90;;;;;;4865220;29;20412;-86
2022/03/09 06:16:18;;;;;;;2.30;2.13;;;-0.20;99.90;;;;;;4872014;29;20057;-82
2022/03/09 06:18:47;;;;;;;3.05;2.72;;;-0.20;99.90;;;;;;4879484;29;20049;-85
2022/03/09 06:21:13;;;;;;;7.95;3.13;;;-0.20;99.90;;;;;;4882769;29;20133;-84
2022/03/09 06:23:39;;;;;;;5.20;2.05;;;0.50;99.90;;;;;;4873087;29;20399;-85
2022/03/09 06:26:05;;;;;;;6.05;2.00;;;-0.20;99.90;;;;;;4863837;29;20053;-84
2022/03/09 06:28:31;;;;;;;2.50;2.35;;;-0.20;99.90;;;;;;4864847;29;20073;-85
2022/03/09 06:30:57;;;;;;;4.68;2.63;;;-0.20;99.90;;;;;;4879017;29;20123;-85
2022/03/09 06:33:23;;;;;;;3.63;2.58;;;-0.10;99.90;;;;;;4860692;29;20549;-82
2022/03/09 06:35:49;;;;;;;8.10;2.80;;;-0.10;99.90;;;;;;4848118;29;20092;-85
2022/03/09 06:38:15;;;;;;;8.18;2.63;;;0.00;99.90;;;;;;4864528;29;20076;-85
2022/03/09 06:40:41;;;;;;;3.33;3.08;;;0.10;99.90;;;;;;4878608;29;20111;-86
2022/03/09 06:43:06;;;;;;;4.27;3.10;;;0.10;99.90;;;;;;4878182;29;20069;-93
2022/03/09 06:45:32;;;;;;;3.80;2.15;;;0.20;99.90;;;;;;4859116;29;20294;-83
2022/03/09 06:47:58;;;;;;;5.28;2.95;;;0.50;99.90;;;;;;4879266;29;20092;-87
2022/03/09 06:50:24;;;;;;;2.72;2.10;;;0.80;99.90;;;;;;4881744;29;20056;-84
2022/03/09 06:52:49;;;;;;;2.92;1.98;;;0.30;99.90;;;;;;4885984;29;20045;-85
2022/03/09 06:55:15;;;;;;;5.57;3.60;;;0.30;99.90;;;;;;4867398;29;20052;-84
2022/03/09 06:57:42;;;;;;;7.28;3.42;;;1.20;99.90;;;;;;4882698;29;20048;-87
2022/03/09 07:00:11;;;;;;;;;;;0.40;99.90;;;;;;4874387;29;20049;-87
2022/03/09 07:02:37;;;;;;;5.47;2.97;;;0.40;99.90;;;;;;4866787;29;19955;-86
2022/03/09 07:05:03;;;;;;;2.88;2.00;;;0.50;99.90;;;;;;4882806;29;20068;-87
2022/03/09 07:07:30;;;;;;;3.50;2.85;;;0.60;99.90;;;;;;4872115;29;20120;-86
2022/03/09 07:09:56;;;;;;;6.82;2.80;;;2.00;99.90;;;;;;4886576;29;20112;-92
2022/03/09 07:12:22;;;;;;;9.90;4.45;;;1.80;99.90;;;;;;4875600;29;20053;-86
2022/03/09 07:14:48;;;;;;;6.72;4.35;;;3.60;99.90;;;;;;4868486;29;20049;-86
2022/03/09 07:17:13;;;;;;;5.90;3.53;;;3.50;99.90;;;;;;4866824;29;20049;-85
2022/03/09 07:19:39;;;;;;;9.68;5.25;;;4.90;99.90;;;;;;4862682;29;20045;-86
2022/03/09 07:22:06;;;;;;;8.73;3.47;;;4.50;99.90;;;;;;4862301;29;20112;-85
2022/03/09 07:24:32;;;;;;;10.82;4.45;;;5.00;99.90;;;;;;4879336;29;20056;-85
2022/03/09 07:26:58;;;;;;;6.67;3.57;;;5.70;99.90;;;;;;4879015;29;20405;-85
2022/03/09 07:29:24;;;;;;;8.90;4.37;;;5.80;99.90;;;;;;4848414;29;20308;-84
2022/03/09 07:31:51;;;;;;;6.17;3.63;;;6.20;99.90;;;;;;4891938;29;20053;-85
2022/03/09 07:34:16;;;;;;;9.20;4.72;;;6.50;99.90;;;;;;4862905;29;20131;-87
2022/03/09 07:36:42;;;;;;;6.27;3.70;;;6.80;99.90;;;;;;4853025;29;20127;-86
2022/03/09 07:39:09;;;;;;;6.57;3.83;;;7.10;99.90;;;;;;4866208;29;20045;-86
2022/03/09 07:41:35;;;;;;;6.95;3.60;;;7.30;99.80;;;;;;4878629;29;20060;-86
2022/03/09 07:44:01;;;;;;;6.10;3.88;;;7.50;98.20;;;;;;4859927;29;20194;-86
2022/03/09 07:46:26;;;;;;;7.93;3.83;;;7.60;96.70;;;;;;4847912;29;20144;-87
2022/03/09 07:48:52;;;;;;;6.43;3.70;;;7.80;94.70;;;;;;4863632;29;20049;-90
2022/03/09 07:51:18;;;;;;;4.50;3.37;;;7.90;93.70;;;;;;4863669;29;20045;-89
2022/03/09 07:53:44;;;;;;;6.57;4.03;;;8.00;91.90;;;;;;4895287;29;20416;-87
2022/03/09 07:56:11;;;;;;;5.90;3.40;;;8.10;91.30;;;;;;4865203;29;20056;-89
2022/03/09 07:58:37;;;;;;;;;;;8.20;89.30;;;;;;4883575;29;20045;-87
2022/03/09 08:01:03;;;;;;;6.53;3.60;;;8.20;81.60;;;;;;4865534;29;19934;-89
2022/03/09 08:03:28;;;;;;;6.40;3.53;;;8.40;88.60;;;;;;4862638;29;20089;-87
2022/03/09 08:05:54;;;;;;;5.20;3.90;;;8.50;87.20;;;;;;4844225;29;20403;-90
2022/03/09 08:08:19;;;;;;;7.37;3.87;;;8.70;85.00;;;;;;4876468;29;20104;-90
2022/03/09 08:10:45;;;;;;;8.77;3.47;;;8.80;84.00;;;;;;4849431;29;20144;-89
2022/03/09 08:13:11;;;;;;;4.60;3.23;;;8.90;81.80;;;;;;4854407;29;20450;-89
2022/03/09 08:15:37;;;;;;;8.33;4.03;;;9.00;81.30;;;;;;4872344;29;20057;-89
2022/03/09 08:18:03;;;;;;;4.93;3.77;;;9.10;79.60;;;;;;4864406;29;20056;-89
2022/03/09 08:20:29;;;;;;;;;;;9.40;78.40;;;;;;4880562;29;20353;-90
2022/03/09 08:22:55;;;;;;;4.25;3.17;;;9.50;72.70;;;;;;4878812;29;20279;-89
2022/03/09 08:25:20;;;;;;;6.00;3.60;;;9.70;77.70;;;;;;4879133;29;20060;-90
2022/03/09 08:27:46;;;;;;;6.10;4.03;;;9.80;75.60;;;;;;4860474;29;20584;-89
2022/03/09 08:30:12;;;;;;;8.40;3.77;;;9.90;74.90;;;;;;4895496;29;20096;-90
2022/03/09 08:32:38;;;;;;;7.20;3.78;;;10.10;74.50;;;;;;4880261;29;20073;-88
2022/03/09 08:35:04;;;;;;;6.77;4.13;;;10.50;73.50;;;;;;4883039;29;20492;-89
2022/03/09 08:37:30;;;;;;;5.80;3.47;;;10.20;72.20;;;;;;4861610;29;20064;-89
2022/03/09 08:39:56;;;;;;;6.67;3.90;;;10.30;71.30;;;;;;4844995;29;20049;-88
2022/03/09 08:42:22;;;;;;;3.63;3.10;;;10.30;70.10;;;;;;4864845;29;20049;-87
2022/03/09 08:44:51;;;;;;;6.87;3.90;;;10.30;69.80;;;;;;4874900;29;20076;-89
2022/03/09 08:47:16;;;;;;;6.70;3.97;;;10.40;67.80;;;;;;4868674;29;20067;-89
2022/03/09 08:49:42;;;;;;;6.77;3.57;;;10.60;67.30;;;;;;4883196;29;20142;-89
2022/03/09 08:52:10;;;;;;;4.90;3.20;;;10.70;66.40;;;;;;4865392;29;20072;-92
2022/03/09 08:54:37;;;;;;;5.85;3.40;;;10.90;65.60;;;;;;4895523;29;20441;-90
2022/03/09 08:57:04;;;;;;;5.30;3.45;;;11.10;64.90;;;;;;4875989;29;20059;-89
2022/03/09 08:59:29;;;;;;;;;;;11.30;64.70;;;;;;4851216;29;20109;-91
2022/03/09 09:01:55;;;;;;;3.95;3.17;;;11.50;61.90;;;;;;4890791;29;19923;-90
2022/03/09 09:04:21;;;;;;;4.53;3.42;;;11.70;64.00;;;;;;4878215;29;20045;-91
2022/03/09 09:06:47;;;;;;;9.35;3.50;;;11.80;63.10;;;;;;4867070;29;20177;-90
2022/03/09 09:09:17;;;;;;;4.77;3.57;;;12.10;63.10;;;;;;4860168;29;20509;-91
2022/03/09 09:11:44;;;;;;;7.38;3.33;;;12.20;61.80;;;;;;4860700;29;20091;-90
2022/03/09 09:14:09;;;;;;;4.13;3.25;;;12.30;61.20;;;;;;4862789;29;20053;-91
2022/03/09 09:16:35;;;;;;;5.27;3.53;;;12.30;60.10;;;;;;4863590;29;20588;-88
2022/03/09 09:19:01;;;;;;;4.77;2.87;;;12.20;59.70;;;;;;4876426;29;20117;-90
2022/03/09 09:21:27;;;;;;;5.17;3.57;;;12.30;59.30;;;;;;4878606;29;20304;-91
2022/03/09 09:23:53;;;;;;;4.20;3.30;;;12.40;59.40;;;;;;4879243;29;20049;-91
2022/03/09 09:26:19;;;;;;;7.23;3.50;;;12.40;58.80;;;;;;4872781;29;20757;-87
2022/03/09 09:28:44;;;;;;;5.20;3.10;;;12.40;58.30;;;;;;4860548;29;20056;-87
2022/03/09 09:31:10;;;;;;;8.27;3.87;;;12.30;57.80;;;;;;4853722;29;20080;-89
2022/03/09 09:33:36;;;;;;;4.57;3.37;;;12.20;58.00;;;;;;4893716;29;20048;-89
2022/03/09 09:36:03;;;;;;;5.40;3.20;;;12.20;57.90;;;;;;4846612;29;20222;-91
2022/03/09 09:38:28;;;;;;;7.20;3.63;;;12.00;58.30;;;;;;4868407;29;20060;-89
2022/03/09 09:40:55;;;;;;;4.70;3.67;;;11.70;58.60;;;;;;4844209;29;20054;-89
2022/03/09 09:43:23;;;;;;;4.00;3.03;;;11.50;59.20;;;;;;4856903;29;20068;-90
2022/03/09 09:45:49;;;;;;;4.63;3.55;;;11.30;58.50;;;;;;4874349;29;20088;-89
2022/03/09 09:48:15;;;;;;;3.77;3.37;;;11.20;58.70;;;;;;4874941;29;20549;-91
2022/03/09 09:50:42;;;;;;;5.45;3.55;;;11.20;58.60;;;;;;4875873;29;20461;-90
2022/03/09 09:53:11;;;;;;;5.47;3.20;;;11.30;59.10;;;;;;4872949;29;20600;-86
2022/03/09 09:55:38;;;;;;;5.07;3.10;;;11.30;58.20;;;;;;4872171;29;20113;-87
2022/03/09 09:58:04;;;;;;;4.95;3.42;;;11.20;57.40;;;;;;4862517;29;20052;-88
2022/03/09 10:00:31;;;;;;;5.00;3.78;;;11.30;58.00;;;;;;4883388;29;20045;-88
2022/03/09 10:02:58;;;;;;;4.75;3.08;;;11.30;57.00;;;;;;4883898;29;20124;-87
2022/03/09 10:05:24;;;;;;;5.47;3.45;;;11.30;57.70;;;;;;4881450;29;20492;-87
2022/03/09 10:08:06;;;;;;;4.47;3.10;;;11.40;57.70;;;;;;4867961;29;20385;-88
2022/03/09 10:10:36;;;;;;;4.63;3.30;;;11.60;56.90;;;;;;4866821;29;20096;-87
2022/03/09 10:13:21;;;;;;;5.07;3.35;;;11.70;57.90;;;;;;4872423;29;20060;-88
2022/03/09 10:15:49;;;;;;;6.63;4.07;;;11.70;55.50;;;;;;4880586;29;20139;-88
2022/03/09 10:18:17;;;;;;;6.25;3.88;;;11.70;57.40;;;;;;4864155;29;20048;-88
2022/03/09 10:20:45;;;;;;;4.25;2.83;;;11.70;56.60;;;;;;4863115;29;20467;-88
2022/03/09 10:23:11;;;;;;;5.22;3.67;;;11.70;56.70;;;;;;4872260;29;20089;-88
2022/03/09 10:25:38;;;;;;;4.30;3.90;;;11.60;56.70;;;;;;4866684;29;20070;-88
2022/03/09 10:28:09;;;;;;;6.95;3.60;;;11.80;57.30;;;;;;4872264;29;20041;-87
2022/03/09 10:30:39;;;;;;;7.10;3.78;;;11.90;55.20;;;;;;4865952;29;20049;-88
2022/03/09 10:33:09;;;;;;;6.90;3.75;;;11.80;55.80;;;;;;4884588;29;20120;-88
2022/03/09 10:35:41;;;;;;;5.10;3.90;;;11.80;56.10;;;;;;4869523;29;20053;-88
2022/03/09 10:38:14;;;;;;;3.50;2.85;;;11.90;55.80;;;;;;4887033;29;20053;-89
2022/03/09 10:40:45;;;;;;;6.18;3.45;;;12.00;55.70;;;;;;4872321;29;20116;-91
2022/03/09 10:43:18;;;;;;;8.98;4.60;;;12.00;56.40;;;;;;4874664;29;20056;-85
2022/03/09 10:46:09;;;;;;;7.97;4.07;;;12.00;56.40;;;;;;4865463;29;20121;-88
2022/03/09 10:49:01;;;;;;;5.10;3.58;;;12.10;55.90;;;;;;4876542;29;20048;-87
2022/03/09 10:51:51;;;;;;;4.88;3.13;;;12.10;54.10;;;;;;4871316;29;20505;-88
2022/03/09 10:54:21;;;;;;;8.75;4.45;;;12.30;55.00;;;;;;4891487;29;20132;-89
2022/03/09 10:56:47;;;;;;;5.47;3.58;;;12.40;55.30;;;;;;4828470;29;20053;-88
2022/03/09 10:59:15;;;;;;;6.47;3.67;;;12.50;55.20;;;;;;4846437;29;20081;-88
2022/03/09 11:01:43;;;;;;;4.38;3.47;;;12.60;55.40;;;;;;4880733;29;20041;-88
2022/03/09 11:04:17;;;;;;;6.40;4.07;;;12.60;55.10;;;;;;4877638;29;20049;-88
2022/03/09 11:06:48;;;;;;;5.65;3.65;;;12.60;55.30;;;;;;4895913;29;20063;-87
2022/03/09 11:09:18;;;;;;;5.10;3.47;;;12.70;55.40;;;;;;4880313;29;20053;-88
2022/03/09 11:11:50;;;;;;;5.97;3.75;;;12.80;54.90;;;;;;4882300;29;20051;-87
2022/03/09 11:14:18;;;;;;;3.97;3.17;;;12.90;55.00;;;;;;4859446;29;20358;-88
2022/03/09 11:16:46;;;;;;;6.80;3.55;;;13.10;54.80;;;;;;4861139;29;20061;-87
2022/03/09 11:19:15;;;;;;;5.10;3.88;;;13.20;55.00;;;;;;4870274;29;20050;-87
2022/03/09 11:21:41;;;;;;;7.47;3.90;;;13.20;54.60;;;;;;4873510;29;20385;-90
2022/03/09 11:24:10;;;;;;;4.53;3.25;;;13.40;54.50;;;;;;4882103;29;20045;-89
2022/03/09 11:26:49;;;;;;;9.38;3.80;;;13.40;53.90;;;;;;4874780;29;20058;-86
2022/03/09 11:29:14;;;;;;;6.75;3.58;;;13.30;53.50;;;;;;4880093;29;20089;-88
2022/03/09 11:31:52;;;;;;;6.93;4.27;;;13.30;53.70;;;;;;4861063;29;20128;-90
2022/03/09 11:34:31;;;;;;;;;;;13.30;53.20;;;;;;4893494;29;20052;-89
2022/03/09 11:37:18;;;;;;;5.40;3.75;;;13.40;51.70;;;;;;4864757;29;19924;-89
2022/03/09 11:39:46;;;;;;;9.43;4.13;;;13.30;51.10;;;;;;4864512;29;20053;-89
2022/03/09 11:42:21;;;;;;;7.28;4.55;;;13.40;53.30;;;;;;4895801;29;20133;-89
2022/03/09 11:44:51;;;;;;;6.80;4.03;;;13.40;52.30;;;;;;4881947;29;20061;-89
2022/03/09 11:47:18;;;;;;;7.95;4.40;;;13.40;52.30;;;;;;4888868;29;20055;-89
2022/03/09 11:49:49;;;;;;;7.05;4.47;;;13.40;52.50;;;;;;4875811;29;20052;-89
2022/03/09 11:52:19;;;;;;;5.80;2.90;;;13.50;52.00;;;;;;4881229;29;20093;-89
2022/03/09 11:54:55;;;;;;;6.57;3.78;;;13.60;51.70;;;;;;4881843;29;20048;-89
2022/03/09 11:57:23;;;;;;;8.70;4.45;;;13.70;51.40;;;;;;4880711;29;20409;-89
2022/03/09 12:00:13;;;;;;;10.20;4.70;;;13.90;51.90;;;;;;4865487;29;20091;-89
2022/03/09 12:02:59;;;;;;;7.05;3.78;;;14.30;51.20;;;;;;4850266;29;20088;-89
2022/03/09 12:05:24;;;;;;;5.47;3.60;;;14.40;50.70;;;;;;4849265;29;20564;-88
2022/03/09 12:07:51;;;;;;;5.90;3.43;;;14.40;51.00;;;;;;4857549;29;20157;-88
2022/03/09 12:10:22;;;;;;;5.95;3.67;;;14.50;50.90;;;;;;4876947;29;20136;-89
2022/03/09 12:13:21;;;;;;;7.72;4.07;;;14.60;50.80;;;;;;4875121;29;20057;-89
2022/03/09 12:16:06;;;;;;;4.60;3.53;;;14.80;48.00;;;;;;4845409;29;20116;-89
2022/03/09 12:18:42;;;;;;;5.13;3.85;;;14.90;48.90;;;;;;4883687;29;20059;-91
2022/03/09 12:21:10;;;;;;;5.22;3.75;;;15.00;49.90;;;;;;4869163;29;20045;-91
2022/03/09 12:23:59;;;;;;;5.82;3.65;;;15.10;49.60;;;;;;4891210;29;20082;-92
2022/03/09 12:26:44;;;;;;;6.97;3.83;;;15.10;47.80;;;;;;4846534;29;20512;-91
2022/03/09 12:29:21;;;;;;;4.70;3.63;;;15.20;46.70;;;;;;4859140;29;20048;-91
2022/03/09 12:32:07;;;;;;;4.30;3.63;;;15.30;47.20;;;;;;4883003;29;20404;-91
2022/03/09 12:34:44;;;;;;;4.63;3.55;;;15.50;47.10;;;;;;4878334;29;20591;-89
2022/03/09 12:37:13;;;;;;;9.30;4.25;;;15.60;47.30;;;;;;4871240;29;20507;-86
2022/03/09 12:39:39;;;;;;;7.45;4.80;;;15.80;47.20;;;;;;4882823;29;20136;-91
2022/03/09 12:42:06;;;;;;;6.05;3.70;;;15.90;47.50;;;;;;4845766;29;20041;-88
2022/03/09 12:44:34;;;;;;;;;;;15.70;46.50;;;;;;4857874;29;20056;-88
2022/03/09 12:47:03;;;;;;;4.18;2.92;;;15.80;44.40;;;;;;4879011;29;20014;-88
2022/03/09 12:49:40;;;;;;;4.43;3.28;;;15.70;47.00;;;;;;4888886;29;20083;-88
2022/03/09 12:52:10;;;;;;;5.30;3.90;;;15.70;43.30;;;;;;4898893;29;20049;-88
2022/03/09 12:54:36;;;;;;;6.50;3.88;;;15.60;46.70;;;;;;4880296;29;20140;-87
2022/03/09 12:57:14;;;;;;;4.50;3.45;;;15.50;46.60;;;;;;4880628;29;20081;-87